createdAt,value
2023-04-16T00:02:15.278Z,6.21
2023-04-16T00:04:42.807Z,6.24
2023-04-16T00:07:10.045Z,6.39
2023-04-16T00:09:37.278Z,6.34
2023-04-16T00:12:05.082Z,6.38
2023-04-16T00:14:32.729Z,6.38
2023-04-16T00:17:00.002Z,6.40
2023-04-16T00:19:27.291Z,6.41
2023-04-16T00:21:54.480Z,6.34
2023-04-16T00:24:40.056Z,6.34
2023-04-16T00:27:07.309Z,6.42
2023-04-16T00:29:35.014Z,6.29
2023-04-16T00:32:02.610Z,6.30
2023-04-16T00:34:30.406Z,6.40
2023-04-16T00:36:57.562Z,6.35
2023-04-16T00:39:24.713Z,6.24
2023-04-16T00:41:51.873Z,6.29
2023-04-16T00:44:19.116Z,6.20
2023-04-16T00:46:46.831Z,6.29
2023-04-16T00:49:14.971Z,6.27
2023-04-16T00:51:42.237Z,6.18
2023-04-16T00:54:09.592Z,6.29
2023-04-16T00:56:37.434Z,6.12
2023-04-16T00:59:04.784Z,6.10
2023-04-16T01:01:31.991Z,6.12
2023-04-16T01:03:59.254Z,6.06
2023-04-16T01:06:27.973Z,6.01
2023-04-16T01:08:55.505Z,5.87
2023-04-16T01:11:22.654Z,5.88
2023-04-16T01:13:49.929Z,5.95
2023-04-16T01:16:17.823Z,5.52
2023-04-16T01:18:45.182Z,5.35
2023-04-16T01:21:12.393Z,5.50
2023-04-16T01:23:39.825Z,5.40
2023-04-16T01:26:06.991Z,5.50
2023-04-16T01:28:34.166Z,5.51
2023-04-16T01:31:01.537Z,5.55
2023-04-16T01:33:45.126Z,5.58
2023-04-16T01:36:13.283Z,5.66
2023-04-16T01:38:40.479Z,5.70
2023-04-16T01:41:07.674Z,5.52
2023-04-16T01:43:35.903Z,5.65
2023-04-16T01:46:32.440Z,5.41
2023-04-16T01:49:00.014Z,5.54
2023-04-16T01:51:28.204Z,5.41
2023-04-16T01:53:55.684Z,5.51
2023-04-16T01:56:22.835Z,5.47
2023-04-16T01:58:50.357Z,5.55
2023-04-16T02:01:19.203Z,5.71
2023-04-16T02:03:48.122Z,5.68
2023-04-16T02:06:15.838Z,5.75
2023-04-16T02:08:43.373Z,5.77
2023-04-16T02:11:10.864Z,5.61
2023-04-16T02:13:38.777Z,5.48
2023-04-16T02:16:06.507Z,5.43
2023-04-16T02:18:59.613Z,5.51
2023-04-16T02:21:31.742Z,5.63
2023-04-16T02:23:58.968Z,5.68
2023-04-16T02:26:29.850Z,5.45
2023-04-16T02:29:02.511Z,5.25
2023-04-16T02:31:37.862Z,5.52
2023-04-16T02:34:06.131Z,5.65
2023-04-16T02:36:33.322Z,5.78
2023-04-16T02:39:00.539Z,5.86
2023-04-16T02:41:27.751Z,5.93
2023-04-16T02:43:55.053Z,5.90
2023-04-16T02:46:22.589Z,5.99
2023-04-16T02:48:50.734Z,6.01
2023-04-16T02:51:18.091Z,6.04
2023-04-16T02:53:46.186Z,5.96
2023-04-16T02:56:14.196Z,5.90
2023-04-16T02:58:41.478Z,5.70
2023-04-16T03:01:08.728Z,5.83
2023-04-16T03:03:36.250Z,5.77
2023-04-16T03:06:03.540Z,5.65
2023-04-16T03:08:30.693Z,5.60
2023-04-16T03:10:57.842Z,5.43
2023-04-16T03:13:25.044Z,5.25
2023-04-16T03:15:52.238Z,5.21
2023-04-16T03:18:19.411Z,5.13
2023-04-16T03:20:46.591Z,5.17
2023-04-16T03:23:13.813Z,4.84
2023-04-16T03:25:41.012Z,5.12
2023-04-16T03:28:09.815Z,5.32
2023-04-16T03:30:38.647Z,5.44
2023-04-16T03:33:06.838Z,5.48
2023-04-16T03:35:34.872Z,6.04
2023-04-16T03:38:03.169Z,6.70
2023-04-16T03:40:30.350Z,6.81
2023-04-16T03:42:59.237Z,6.64
2023-04-16T03:45:29.844Z,6.44
2023-04-16T03:47:57.395Z,6.27
2023-04-16T03:50:26.428Z,6.58
2023-04-16T03:52:53.677Z,6.67
2023-04-16T03:55:20.976Z,7.51
2023-04-16T03:57:48.603Z,7.51
2023-04-16T04:00:17.131Z,7.61
2023-04-16T04:03:03.272Z,7.04
2023-04-16T04:05:31.512Z,7.21
2023-04-16T04:07:59.729Z,8.01
2023-04-16T04:10:28.819Z,8.28
2023-04-16T04:12:56.032Z,7.37
2023-04-16T04:15:23.223Z,6.73
2023-04-16T04:17:50.454Z,6.58
2023-04-16T04:20:17.832Z,8.07
2023-04-16T04:22:47.960Z,8.30
2023-04-16T04:25:15.123Z,8.82
2023-04-16T04:27:42.386Z,10.02
2023-04-16T04:30:10.597Z,9.67
2023-04-16T04:32:38.855Z,10.60
2023-04-16T04:35:06.737Z,11.56
2023-04-16T04:37:34.384Z,10.99
2023-04-16T04:40:10.606Z,10.31
2023-04-16T04:42:38.552Z,9.48
2023-04-16T04:45:06.723Z,8.64
2023-04-16T04:47:34.887Z,8.35
2023-04-16T04:50:02.200Z,8.29
2023-04-16T04:52:31.647Z,7.53
2023-04-16T04:54:59.176Z,7.96
2023-04-16T04:57:26.547Z,7.95
2023-04-16T04:59:55.410Z,7.90
2023-04-16T05:02:23.369Z,7.98
2023-04-16T05:04:50.680Z,8.30
2023-04-16T05:07:17.870Z,8.00
2023-04-16T05:09:45.012Z,7.64
2023-04-16T05:12:12.258Z,7.81
2023-04-16T05:14:39.441Z,8.33
2023-04-16T05:17:08.138Z,8.73
2023-04-16T05:19:35.471Z,8.89
2023-04-16T05:22:02.922Z,8.92
2023-04-16T05:24:30.064Z,9.05
2023-04-16T05:26:57.466Z,9.30
2023-04-16T05:29:24.994Z,9.41
2023-04-16T05:31:53.221Z,9.18
2023-04-16T05:34:20.503Z,9.25
2023-04-16T05:36:47.658Z,9.36
2023-04-16T05:39:16.893Z,9.23
2023-04-16T05:41:44.201Z,9.12
2023-04-16T05:44:11.364Z,9.45
2023-04-16T05:46:38.566Z,9.48
2023-04-16T05:49:05.720Z,9.69
2023-04-16T05:51:33.248Z,9.65
2023-04-16T05:54:00.465Z,9.19
2023-04-16T05:56:27.846Z,9.18
2023-04-16T05:58:54.967Z,9.45
2023-04-16T06:01:22.967Z,9.38
2023-04-16T06:03:50.168Z,9.28
2023-04-16T06:06:17.445Z,9.54
2023-04-16T06:08:44.670Z,9.87
2023-04-16T06:11:12.375Z,10.15
2023-04-16T06:13:39.612Z,10.25
2023-04-16T06:16:06.978Z,10.41
2023-04-16T06:18:34.480Z,10.53
2023-04-16T06:21:01.715Z,10.56
2023-04-16T06:23:28.874Z,9.97
2023-04-16T06:25:56.171Z,10.25
2023-04-16T06:28:23.398Z,9.52
2023-04-16T06:30:50.677Z,9.62
2023-04-16T06:33:17.889Z,10.04
2023-04-16T06:35:45.025Z,10.51
2023-04-16T06:38:12.202Z,10.72
2023-04-16T06:40:39.457Z,10.45
2023-04-16T06:43:06.895Z,10.83
2023-04-16T06:45:34.769Z,11.24
2023-04-16T06:48:03.526Z,11.60
2023-04-16T06:50:31.123Z,10.98
2023-04-16T06:52:58.558Z,10.16
2023-04-16T06:55:25.707Z,10.55
2023-04-16T06:57:52.936Z,10.94
2023-04-16T07:00:20.151Z,10.84
2023-04-16T07:02:47.535Z,11.22
2023-04-16T07:05:14.847Z,10.70
2023-04-16T07:07:42.053Z,11.11
2023-04-16T07:10:09.683Z,11.46
2023-04-16T07:12:37.072Z,11.90
2023-04-16T07:15:04.759Z,12.27
2023-04-16T07:17:32.018Z,12.16
2023-04-16T07:19:59.412Z,10.87
2023-04-16T07:22:26.531Z,11.07
2023-04-16T07:24:53.713Z,11.41
2023-04-16T07:27:20.817Z,11.98
2023-04-16T07:29:49.750Z,11.63
2023-04-16T07:32:17.122Z,12.16
2023-04-16T07:34:44.342Z,12.55
2023-04-16T07:37:11.494Z,12.84
2023-04-16T07:39:38.661Z,12.86
2023-04-16T07:42:06.569Z,12.28
2023-04-16T07:44:33.780Z,12.52
2023-04-16T07:47:02.296Z,12.79
2023-04-16T07:49:31.731Z,13.00
2023-04-16T07:51:58.923Z,13.13
2023-04-16T07:54:27.759Z,13.00
2023-04-16T07:56:56.156Z,13.15
2023-04-16T07:59:24.301Z,13.03
2023-04-16T08:01:54.111Z,13.10
2023-04-16T08:04:25.675Z,12.83
2023-04-16T08:06:54.411Z,13.16
2023-04-16T08:09:24.102Z,13.07
2023-04-16T08:11:51.452Z,13.20
2023-04-16T08:14:18.711Z,13.11
2023-04-16T08:16:45.968Z,13.25
2023-04-16T08:19:13.390Z,13.45
2023-04-16T08:21:40.830Z,13.52
2023-04-16T08:24:08.478Z,13.13
2023-04-16T08:26:35.758Z,13.31
2023-04-16T08:29:03.048Z,13.79
2023-04-16T08:31:30.646Z,14.23
2023-04-16T08:33:57.847Z,14.32
2023-04-16T08:36:24.997Z,14.38
2023-04-16T08:38:52.463Z,14.25
2023-04-16T08:41:22.440Z,14.39
2023-04-16T08:43:52.014Z,14.64
2023-04-16T08:46:22.884Z,14.32
2023-04-16T08:48:55.800Z,14.31
2023-04-16T08:51:24.272Z,14.30
2023-04-16T08:54:03.036Z,14.21
2023-04-16T08:56:32.167Z,13.60
2023-04-16T08:59:02.113Z,13.76
2023-04-16T09:01:29.852Z,13.19
2023-04-16T09:03:57.478Z,13.68
2023-04-16T09:06:26.435Z,14.01
2023-04-16T09:08:54.197Z,13.82
2023-04-16T09:11:21.961Z,13.50
2023-04-16T09:13:49.164Z,13.68
2023-04-16T09:16:17.057Z,13.97
2023-04-16T09:18:44.377Z,13.57
2023-04-16T09:21:11.513Z,13.23
2023-04-16T09:23:40.182Z,13.14
2023-04-16T09:26:07.458Z,12.29
2023-04-16T09:28:42.831Z,11.64
2023-04-16T09:31:18.181Z,12.62
2023-04-16T09:34:05.626Z,12.98
2023-04-16T09:36:34.098Z,12.20
2023-04-16T09:39:01.984Z,12.34
2023-04-16T09:41:31.350Z,12.15
2023-04-16T09:44:01.988Z,12.55
2023-04-16T09:46:35.285Z,12.11
2023-04-16T09:49:10.093Z,11.96
2023-04-16T09:51:38.457Z,12.11
2023-04-16T09:54:06.787Z,12.06
2023-04-16T09:56:39.329Z,12.50
2023-04-16T09:59:06.558Z,12.23
2023-04-16T10:01:33.828Z,12.56
2023-04-16T10:04:01.115Z,13.09
2023-04-16T10:06:29.547Z,12.97
2023-04-16T10:08:57.222Z,12.49
2023-04-16T10:11:25.963Z,13.36
2023-04-16T10:13:53.404Z,12.94
2023-04-16T10:16:22.425Z,12.58
2023-04-16T10:18:49.747Z,12.39
2023-04-16T10:21:17.242Z,13.12
2023-04-16T10:23:44.518Z,12.56
2023-04-16T10:26:11.840Z,12.70
2023-04-16T10:28:39.410Z,13.44
2023-04-16T10:31:09.669Z,13.83
2023-04-16T10:33:40.908Z,14.05
2023-04-16T10:36:13.554Z,13.04
2023-04-16T10:38:48.461Z,13.54
2023-04-16T10:41:16.010Z,14.04
2023-04-16T10:43:48.118Z,13.15
2023-04-16T10:46:19.247Z,13.49
2023-04-16T10:48:50.439Z,13.18
2023-04-16T10:51:34.939Z,12.64
2023-04-16T10:54:08.339Z,12.76
2023-04-16T10:56:36.920Z,13.30
2023-04-16T10:59:23.973Z,13.22
2023-04-16T11:01:54.044Z,13.81
2023-04-16T11:04:21.656Z,13.38
2023-04-16T11:07:21.048Z,13.30
2023-04-16T11:10:12.892Z,13.01
2023-04-16T11:12:47.144Z,12.81
2023-04-16T11:15:16.347Z,13.24
2023-04-16T11:17:45.849Z,13.88
2023-04-16T11:20:23.684Z,14.51
2023-04-16T11:22:55.528Z,14.50
2023-04-16T11:25:25.596Z,14.70
2023-04-16T11:27:53.552Z,15.01
2023-04-16T11:30:33.374Z,14.40
2023-04-16T11:33:18.879Z,13.85
2023-04-16T11:35:58.016Z,13.96
2023-04-16T11:38:38.422Z,14.35
2023-04-16T11:41:05.536Z,14.25
2023-04-16T11:43:32.732Z,14.82
2023-04-16T11:46:12.860Z,14.99
2023-04-16T11:48:51.410Z,14.12
2023-04-16T11:51:19.804Z,14.46
2023-04-16T11:53:52.913Z,14.60
2023-04-16T11:56:30.781Z,14.27
2023-04-16T11:59:11.968Z,14.13
2023-04-16T12:01:41.347Z,13.95
2023-04-16T12:04:09.180Z,14.12
2023-04-16T12:06:36.837Z,14.12
2023-04-16T12:09:25.800Z,14.27
2023-04-16T12:11:53.827Z,14.57
2023-04-16T12:14:21.636Z,14.88
2023-04-16T12:16:49.177Z,15.07
2023-04-16T12:19:16.516Z,15.17
2023-04-16T12:21:46.070Z,14.75
2023-04-16T12:24:15.922Z,14.47
2023-04-16T12:26:45.433Z,14.31
2023-04-16T12:29:24.238Z,14.27
2023-04-16T12:31:52.898Z,14.60
2023-04-16T12:34:21.631Z,14.70
2023-04-16T12:37:12.406Z,14.86
2023-04-16T12:39:39.638Z,14.84
2023-04-16T12:42:09.949Z,14.81
2023-04-16T12:44:37.128Z,14.39
2023-04-16T12:47:05.689Z,14.66
2023-04-16T12:49:32.835Z,14.18
2023-04-16T12:52:00.031Z,14.56
2023-04-16T12:54:31.324Z,14.23
2023-04-16T12:56:58.507Z,14.35
2023-04-16T12:59:25.627Z,14.82
2023-04-16T13:01:52.901Z,14.88
2023-04-16T13:04:20.773Z,14.80
2023-04-16T13:06:49.209Z,14.83
2023-04-16T13:09:16.534Z,14.80
2023-04-16T13:11:43.750Z,14.81
2023-04-16T13:14:10.886Z,14.87
2023-04-16T13:16:38.958Z,14.88
2023-04-16T13:19:06.214Z,14.86
2023-04-16T13:21:34.399Z,14.87
2023-04-16T13:24:01.599Z,14.79
2023-04-16T13:26:28.811Z,14.87
2023-04-16T13:28:56.058Z,14.90
2023-04-16T13:31:23.344Z,14.86
2023-04-16T13:33:50.778Z,14.83
2023-04-16T13:36:17.914Z,14.96
2023-04-16T13:38:45.859Z,14.95
2023-04-16T13:41:13.118Z,14.72
2023-04-16T13:43:40.470Z,14.75
2023-04-16T13:46:07.869Z,14.78
2023-04-16T13:48:35.151Z,14.83
2023-04-16T13:51:03.027Z,14.82
2023-04-16T13:53:30.171Z,14.81
2023-04-16T13:55:57.411Z,14.69
2023-04-16T13:58:24.866Z,14.69
2023-04-16T14:00:52.404Z,14.50
2023-04-16T14:03:19.747Z,14.63
2023-04-16T14:05:47.151Z,14.66
2023-04-16T14:08:17.054Z,14.61
2023-04-16T14:10:44.225Z,14.57
2023-04-16T14:13:12.432Z,14.55
2023-04-16T14:15:39.987Z,14.46
2023-04-16T14:18:07.290Z,14.45
2023-04-16T14:20:34.515Z,14.38
2023-04-16T14:23:02.062Z,14.43
2023-04-16T14:25:29.264Z,14.44
2023-04-16T14:27:56.449Z,14.43
2023-04-16T14:30:23.585Z,14.43
2023-04-16T14:32:51.204Z,14.48
2023-04-16T14:35:18.511Z,14.52
2023-04-16T14:37:46.680Z,14.57
2023-04-16T14:40:14.197Z,14.54
2023-04-16T14:42:41.483Z,14.54
2023-04-16T14:45:09.204Z,14.54
2023-04-16T14:47:37.843Z,14.61
2023-04-16T14:50:06.380Z,14.66
2023-04-16T14:52:33.484Z,14.76
2023-04-16T14:55:00.852Z,14.79
2023-04-16T14:57:27.996Z,14.69
2023-04-16T14:59:55.198Z,14.68
2023-04-16T15:02:22.677Z,14.64
2023-04-16T15:04:50.050Z,14.61
2023-04-16T15:07:17.242Z,14.60
2023-04-16T15:09:44.476Z,14.60
2023-04-16T15:12:11.679Z,14.42
2023-04-16T15:14:38.971Z,14.45
2023-04-16T15:17:06.222Z,14.56
2023-04-16T15:19:33.489Z,14.61
2023-04-16T15:22:00.614Z,14.46
2023-04-16T15:24:27.795Z,14.36
2023-04-16T15:26:54.927Z,14.33
2023-04-16T15:29:22.069Z,14.27
2023-04-16T15:31:49.262Z,14.30
2023-04-16T15:34:16.440Z,14.21
2023-04-16T15:36:43.615Z,14.19
2023-04-16T15:39:11.201Z,14.18
2023-04-16T15:41:50.192Z,14.20
2023-04-16T15:44:26.818Z,14.21
2023-04-16T15:46:54.022Z,14.18
2023-04-16T15:49:21.256Z,14.10
2023-04-16T15:51:48.502Z,14.00
2023-04-16T15:54:15.705Z,13.90
2023-04-16T15:56:42.986Z,13.79
2023-04-16T15:59:10.524Z,13.76
2023-04-16T16:01:37.915Z,13.79
2023-04-16T16:04:08.201Z,13.76
2023-04-16T16:06:38.207Z,13.67
2023-04-16T16:09:05.513Z,13.64
2023-04-16T16:11:32.793Z,13.53
2023-04-16T16:14:03.020Z,13.56
2023-04-16T16:16:30.873Z,13.58
2023-04-16T16:18:58.058Z,13.53
2023-04-16T16:21:25.183Z,13.56
2023-04-16T16:23:52.333Z,13.48
2023-04-16T16:26:20.679Z,13.24
2023-04-16T16:28:48.126Z,13.25
2023-04-16T16:31:15.283Z,12.97
2023-04-16T16:33:42.476Z,13.17
2023-04-16T16:36:12.762Z,13.25
2023-04-16T16:38:41.188Z,13.24
2023-04-16T16:41:08.546Z,13.32
2023-04-16T16:44:03.859Z,13.22
2023-04-16T16:46:31.131Z,13.22
2023-04-16T16:48:58.605Z,13.22
2023-04-16T16:51:26.439Z,13.25
2023-04-16T16:53:53.732Z,13.05
2023-04-16T16:56:20.879Z,13.12
2023-04-16T16:58:48.092Z,12.94
2023-04-16T17:01:15.609Z,13.07
2023-04-16T17:03:43.004Z,13.18
2023-04-16T17:06:10.331Z,13.21
2023-04-16T17:08:37.562Z,13.21
2023-04-16T17:11:04.942Z,13.02
2023-04-16T17:13:32.825Z,12.97
2023-04-16T17:16:00.208Z,12.83
2023-04-16T17:18:28.333Z,12.70
2023-04-16T17:20:55.476Z,12.88
2023-04-16T17:23:22.686Z,12.99
2023-04-16T17:25:50.253Z,13.03
2023-04-16T17:28:17.599Z,12.99
2023-04-16T17:30:45.759Z,12.99
2023-04-16T17:33:13.042Z,12.95
2023-04-16T17:35:41.105Z,12.90
2023-04-16T17:38:08.227Z,12.79
2023-04-16T17:40:35.475Z,12.77
2023-04-16T17:43:02.752Z,12.80
2023-04-16T17:45:29.950Z,12.68
2023-04-16T17:47:57.084Z,12.66
2023-04-16T17:50:24.416Z,12.65
2023-04-16T17:52:51.757Z,12.74
2023-04-16T17:55:18.955Z,12.70
2023-04-16T17:57:46.670Z,12.66
2023-04-16T18:00:14.816Z,12.70
2023-04-16T18:02:42.273Z,12.68
2023-04-16T18:05:09.881Z,12.67
2023-04-16T18:07:37.763Z,12.65
2023-04-16T18:10:06.378Z,12.65
2023-04-16T18:12:33.771Z,12.54
2023-04-16T18:15:01.001Z,12.21
2023-04-16T18:17:29.094Z,12.31
2023-04-16T18:19:56.717Z,12.46
2023-04-16T18:22:26.247Z,12.44
2023-04-16T18:24:55.150Z,12.47
2023-04-16T18:27:23.230Z,12.43
2023-04-16T18:29:51.386Z,12.45
2023-04-16T18:32:18.741Z,12.45
2023-04-16T18:34:46.066Z,12.47
2023-04-16T18:37:13.246Z,12.27
2023-04-16T18:39:40.407Z,12.38
2023-04-16T18:42:07.974Z,12.22
2023-04-16T18:44:35.228Z,12.23
2023-04-16T18:47:02.607Z,12.36
2023-04-16T18:49:29.924Z,12.37
2023-04-16T18:51:57.098Z,12.32
2023-04-16T18:54:24.353Z,12.32
2023-04-16T18:56:51.570Z,12.31
2023-04-16T18:59:18.693Z,12.40
2023-04-16T19:01:45.872Z,12.38
2023-04-16T19:04:13.032Z,12.40
2023-04-16T19:06:40.290Z,12.34
2023-04-16T19:09:09.459Z,12.32
2023-04-16T19:11:37.934Z,12.34
2023-04-16T19:14:05.931Z,12.19
2023-04-16T19:16:33.315Z,12.16
2023-04-16T19:19:01.098Z,12.23
2023-04-16T19:21:28.445Z,12.27
2023-04-16T19:23:55.778Z,12.25
2023-04-16T19:26:22.972Z,12.20
2023-04-16T19:28:50.136Z,12.18
2023-04-16T19:31:17.504Z,12.13
2023-04-16T19:33:44.617Z,12.09
2023-04-16T19:36:11.775Z,12.07
2023-04-16T19:38:38.868Z,12.01
2023-04-16T19:41:06.190Z,12.03
2023-04-16T19:43:33.397Z,12.02
2023-04-16T19:46:00.558Z,12.02
2023-04-16T19:48:27.778Z,11.90
2023-04-16T19:50:54.890Z,11.94
2023-04-16T19:53:21.990Z,11.99
2023-04-16T19:55:49.344Z,12.00
2023-04-16T19:58:16.475Z,11.97
2023-04-16T20:00:43.822Z,11.98
2023-04-16T20:03:11.049Z,12.00
2023-04-16T20:05:38.369Z,11.98
2023-04-16T20:08:05.935Z,11.83
2023-04-16T20:10:33.115Z,11.94
2023-04-16T20:13:00.504Z,11.84
2023-04-16T20:15:27.736Z,11.87
2023-04-16T20:17:56.374Z,11.91
2023-04-16T20:20:23.810Z,11.87
2023-04-16T20:22:51.136Z,11.71
2023-04-16T20:25:21.751Z,11.51
2023-04-16T20:27:48.933Z,11.65
2023-04-16T20:30:16.459Z,11.72
2023-04-16T20:32:43.705Z,11.79
2023-04-16T20:35:11.633Z,11.89
2023-04-16T20:37:39.268Z,11.93
2023-04-16T20:40:08.950Z,11.97
2023-04-16T20:42:36.302Z,11.95
2023-04-16T20:45:03.640Z,11.92
2023-04-16T20:47:34.842Z,11.89
2023-04-16T20:50:02.988Z,11.91
2023-04-16T20:52:31.278Z,11.97
2023-04-16T20:54:58.540Z,11.97
2023-04-16T20:57:28.126Z,11.84
2023-04-16T20:59:56.521Z,11.78
2023-04-16T21:02:24.436Z,11.65
2023-04-16T21:04:52.245Z,11.77
2023-04-16T21:07:19.565Z,11.68
2023-04-16T21:09:46.749Z,11.68
2023-04-16T21:12:13.935Z,11.63
2023-04-16T21:14:41.509Z,11.46
2023-04-16T21:17:08.635Z,11.58
2023-04-16T21:19:35.748Z,11.64
2023-04-16T21:22:02.969Z,11.70
2023-04-16T21:24:32.962Z,11.72
2023-04-16T21:27:00.167Z,11.68
2023-04-16T21:29:27.503Z,11.75
2023-04-16T21:31:55.112Z,11.67
2023-04-16T21:34:22.377Z,11.71
2023-04-16T21:36:49.542Z,11.69
2023-04-16T21:39:20.221Z,11.54
2023-04-16T21:41:50.462Z,11.50
2023-04-16T21:44:17.572Z,11.45
2023-04-16T21:46:44.721Z,11.43
2023-04-16T21:49:12.112Z,11.42
2023-04-16T21:51:43.155Z,11.43
2023-04-16T21:54:10.441Z,11.47
2023-04-16T21:56:37.586Z,11.51
2023-04-16T21:59:04.742Z,11.46
2023-04-16T22:01:32.105Z,11.47
2023-04-16T22:03:59.361Z,11.49
2023-04-16T22:06:29.582Z,11.18
2023-04-16T22:08:58.944Z,11.36
2023-04-16T22:11:26.088Z,11.37
2023-04-16T22:13:53.803Z,11.10
2023-04-16T22:16:20.967Z,11.19
2023-04-16T22:18:48.195Z,11.04
2023-04-16T22:21:15.561Z,10.99
2023-04-16T22:23:42.735Z,10.94
2023-04-16T22:26:10.192Z,10.92
2023-04-16T22:28:37.310Z,11.10
2023-04-16T22:31:04.656Z,11.08
2023-04-16T22:33:31.886Z,10.98
2023-04-16T22:36:00.001Z,10.96
2023-04-16T22:38:27.157Z,10.91
2023-04-16T22:40:54.334Z,10.94
2023-04-16T22:43:21.492Z,11.01
2023-04-16T22:45:48.859Z,10.98
2023-04-16T22:48:16.488Z,11.09
2023-04-16T22:50:48.719Z,11.16
2023-04-16T22:53:16.212Z,11.15
2023-04-16T22:55:43.385Z,11.19
2023-04-16T22:58:10.567Z,11.20
2023-04-16T23:00:37.701Z,11.23
2023-04-16T23:03:05.170Z,11.19
2023-04-16T23:05:32.529Z,11.14
2023-04-16T23:07:59.625Z,10.93
2023-04-16T23:10:27.537Z,10.83
2023-04-16T23:12:54.654Z,10.83
2023-04-16T23:15:21.828Z,10.51
2023-04-16T23:17:49.426Z,10.54
2023-04-16T23:20:16.833Z,10.73
2023-04-16T23:22:43.953Z,10.61
2023-04-16T23:25:11.100Z,10.70
2023-04-16T23:27:38.449Z,10.84
2023-04-16T23:30:06.852Z,10.92
2023-04-16T23:32:34.682Z,10.94
2023-04-16T23:35:01.898Z,10.93
2023-04-16T23:37:31.641Z,10.97
2023-04-16T23:39:58.936Z,10.98
2023-04-16T23:42:26.069Z,11.00
2023-04-16T23:44:53.208Z,10.97
2023-04-16T23:47:20.385Z,10.95
2023-04-16T23:49:47.570Z,10.92
2023-04-16T23:52:14.875Z,10.94
2023-04-16T23:54:42.031Z,10.95
2023-04-16T23:57:09.330Z,10.95
2023-04-16T23:59:36.496Z,10.96
